Time;durP1;ratioP1;P1;durP2;ratioP2;P2;SDS_P1;SDS_P2;PMS_P1;PMS_P2;Temp;Humidity;BMP_temperature;BMP_pressure;BME280_temperature;BME280_humidity;BME280_pressure;Samples;Min_cycle;Max_cycle;Signal;HPM_P1;HPM_P2
2022/10/15 00:01:06;;;;;;;17.47;15.67;;;15.90;99.90;;;;;;5019292;28;20463;-79
2022/10/15 00:03:36;;;;;;;19.30;17.30;;;15.90;99.90;;;;;;5032726;28;20976;-80
2022/10/15 00:06:05;;;;;;;18.50;14.63;;;15.90;99.90;;;;;;5029871;28;20908;-80
2022/10/15 00:08:33;;;;;;;18.60;16.70;;;16.00;99.90;;;;;;5029486;28;20487;-78
2022/10/15 00:11:04;;;;;;;19.53;17.00;;;15.90;99.90;;;;;;5026525;28;25949;-78
2022/10/15 00:13:31;;;;;;;17.70;15.80;;;15.90;99.90;;;;;;5023490;28;20544;-78
2022/10/15 00:16:01;;;;;;;20.30;17.43;;;15.90;99.90;;;;;;5030235;28;20542;-77
2022/10/15 00:18:28;;;;;;;19.93;16.73;;;15.90;99.90;;;;;;5013818;28;20500;-80
2022/10/15 00:20:57;;;;;;;19.37;15.60;;;15.90;99.90;;;;;;5025545;28;20874;-77
2022/10/15 00:23:24;;;;;;;16.47;14.87;;;16.00;99.90;;;;;;5024994;28;20468;-77
2022/10/15 00:26:02;;;;;;;18.57;16.07;;;15.90;99.90;;;;;;5018668;28;20535;-77
2022/10/15 00:28:29;;;;;;;17.20;15.50;;;15.90;99.90;;;;;;5029182;28;20466;-78
2022/10/15 00:31:08;;;;;;;20.17;16.80;;;15.90;99.90;;;;;;5023768;28;20482;-79
2022/10/15 00:33:40;;;;;;;18.53;16.60;;;15.90;99.90;;;;;;5024748;28;20520;-81
2022/10/15 00:36:12;;;;;;;18.80;16.47;;;15.90;99.90;;;;;;5015737;28;20547;-77
2022/10/15 00:38:39;;;;;;;18.90;16.83;;;15.80;99.90;;;;;;5017932;28;20486;-79
2022/10/15 00:41:09;;;;;;;18.57;15.57;;;15.80;99.90;;;;;;5032244;28;20479;-78
2022/10/15 00:43:42;;;;;;;17.73;15.93;;;15.80;99.90;;;;;;5032769;28;20472;-77
2022/10/15 00:46:19;;;;;;;20.23;17.83;;;15.80;99.90;;;;;;5028184;28;20504;-80
2022/10/15 00:48:50;;;;;;;16.80;15.17;;;15.80;99.90;;;;;;5026386;28;20484;-78
2022/10/15 00:51:20;;;;;;;19.90;16.43;;;15.80;99.90;;;;;;5021217;28;20487;-78
2022/10/15 00:53:50;;;;;;;17.60;15.80;;;15.80;99.90;;;;;;5024328;28;20468;-78
2022/10/15 00:56:29;;;;;;;18.47;16.70;;;15.80;99.90;;;;;;5025915;28;20567;-78
2022/10/15 00:59:04;;;;;;;18.03;16.23;;;15.80;99.90;;;;;;5022746;28;20484;-79
2022/10/15 01:01:32;;;;;;;22.80;18.03;;;15.80;99.90;;;;;;5023500;28;20911;-78
2022/10/15 01:04:02;;;;;;;20.87;18.77;;;15.80;99.90;;;;;;5028545;28;20535;-78
2022/10/15 01:06:33;;;;;;;21.93;19.70;;;15.70;99.90;;;;;;5017902;28;20968;-79
2022/10/15 01:09:01;;;;;;;21.67;19.37;;;15.70;99.90;;;;;;5033837;28;20486;-77
2022/10/15 01:11:36;;;;;;;30.93;27.63;;;15.70;99.90;;;;;;5017219;28;20460;-78
2022/10/15 01:14:20;;;;;;;31.50;26.00;;;15.70;99.90;;;;;;5024884;28;20525;-80
2022/10/15 01:16:59;;;;;;;31.60;26.83;;;15.70;99.90;;;;;;5017414;28;20456;-79
2022/10/15 01:19:42;;;;;;;28.00;25.00;;;15.60;99.90;;;;;;5004575;28;20480;-78
2022/10/15 01:22:16;;;;;;;28.70;24.57;;;15.60;99.90;;;;;;5023840;28;20468;-79
2022/10/15 01:25:10;;;;;;;26.00;22.67;;;15.60;99.90;;;;;;4999439;28;20503;-79
2022/10/15 01:27:41;;;;;;;23.87;20.53;;;15.60;99.90;;;;;;5003444;28;20504;-78
2022/10/15 01:30:25;;;;;;;30.77;22.60;;;15.60;99.90;;;;;;5020377;28;20505;-78
2022/10/15 01:33:08;;;;;;;22.23;18.93;;;15.50;99.90;;;;;;5026607;28;20508;-78
2022/10/15 01:35:50;;;;;;;23.00;18.30;;;15.50;99.90;;;;;;5024466;28;20468;-78
2022/10/15 01:38:33;;;;;;;23.50;19.53;;;15.50;99.90;;;;;;5018745;28;20821;-78
2022/10/15 01:41:06;;;;;;;20.23;17.60;;;15.50;99.90;;;;;;5029471;28;20456;-80
2022/10/15 01:43:38;;;;;;;19.20;16.77;;;15.50;99.90;;;;;;5032880;28;20472;-78
2022/10/15 01:46:11;;;;;;;22.50;18.47;;;15.50;99.90;;;;;;5033108;28;20473;-78
2022/10/15 01:48:39;;;;;;;22.03;18.70;;;15.50;99.90;;;;;;5033075;28;20503;-78
2022/10/15 01:51:07;;;;;;;19.73;17.63;;;15.50;99.90;;;;;;5021643;28;20975;-81
2022/10/15 01:53:39;;;;;;;20.47;17.20;;;15.50;99.90;;;;;;5022388;28;20472;-77
2022/10/15 01:56:09;;;;;;;19.07;16.47;;;15.50;99.90;;;;;;5025724;28;20483;-77
2022/10/15 01:58:40;;;;;;;18.90;16.83;;;15.50;99.90;;;;;;5023992;28;20465;-77
2022/10/15 02:01:09;;;;;;;18.20;15.60;;;15.50;99.90;;;;;;5020912;28;20476;-80
2022/10/15 02:03:45;;;;;;;21.30;19.07;;;15.50;99.90;;;;;;5014113;28;20477;-80
2022/10/15 02:06:18;;;;;;;23.30;17.17;;;15.50;99.90;;;;;;5026264;28;20469;-77
2022/10/15 02:08:55;;;;;;;23.30;18.57;;;15.50;99.90;;;;;;5031736;28;20984;-78
2022/10/15 02:11:22;;;;;;;23.20;20.70;;;15.50;99.90;;;;;;5021441;28;20466;-82
2022/10/15 02:14:06;;;;;;;18.70;16.77;;;15.50;99.90;;;;;;5023219;28;20667;-78
2022/10/15 02:16:41;;;;;;;20.53;18.53;;;15.50;99.90;;;;;;5015054;28;20477;-79
2022/10/15 02:19:16;;;;;;;17.53;15.73;;;15.40;99.90;;;;;;5027855;28;20946;-80
2022/10/15 02:21:47;;;;;;;19.27;17.07;;;15.40;99.90;;;;;;5019971;28;20846;-78
2022/10/15 02:24:17;;;;;;;19.83;17.43;;;15.50;99.90;;;;;;5028261;28;20465;-78
2022/10/15 02:26:47;;;;;;;20.77;18.17;;;15.40;99.90;;;;;;5024784;28;20993;-77
2022/10/15 02:29:23;;;;;;;19.63;17.13;;;15.50;99.90;;;;;;5013501;28;20475;-78
2022/10/15 02:31:53;;;;;;;24.87;20.67;;;15.50;99.90;;;;;;5027003;28;20475;-77
2022/10/15 02:34:25;;;;;;;20.70;16.97;;;15.50;99.90;;;;;;5023143;28;20471;-77
2022/10/15 02:36:55;;;;;;;20.27;18.17;;;15.50;99.90;;;;;;5028781;28;20473;-79
2022/10/15 02:39:24;;;;;;;18.80;16.83;;;15.50;99.90;;;;;;5015617;28;20530;-78
2022/10/15 02:41:52;;;;;;;24.27;18.47;;;15.50;99.90;;;;;;5019551;28;20476;-79
2022/10/15 02:44:20;;;;;;;19.07;17.00;;;15.60;99.90;;;;;;5030115;28;20459;-79
2022/10/15 02:46:46;;;;;;;20.87;16.73;;;15.60;99.90;;;;;;5017190;28;20666;-80
2022/10/15 02:49:15;;;;;;;21.43;18.43;;;15.60;99.90;;;;;;5020263;28;20473;-77
2022/10/15 02:51:42;;;;;;;21.30;19.20;;;15.60;99.90;;;;;;5029536;28;20476;-77
2022/10/15 02:54:09;;;;;;;19.60;17.60;;;15.60;99.90;;;;;;5020144;28;20507;-77
2022/10/15 02:56:38;;;;;;;22.93;18.13;;;15.60;99.90;;;;;;5029873;28;20546;-79
2022/10/15 02:59:05;;;;;;;20.30;16.50;;;15.70;99.90;;;;;;5030450;28;20479;-77
2022/10/15 03:01:33;;;;;;;17.10;15.40;;;15.70;99.90;;;;;;5029741;28;20488;-80
2022/10/15 03:04:00;;;;;;;16.90;15.20;;;15.80;99.90;;;;;;5022777;28;20549;-81
2022/10/15 03:06:29;;;;;;;18.50;16.53;;;15.80;99.90;;;;;;5030428;28;22595;-78
2022/10/15 03:08:58;;;;;;;18.27;16.37;;;15.80;99.90;;;;;;5024980;28;20854;-80
2022/10/15 03:11:26;;;;;;;17.47;15.57;;;15.80;99.90;;;;;;5027085;28;20468;-79
2022/10/15 03:13:53;;;;;;;19.10;17.10;;;15.80;99.90;;;;;;5032190;28;20468;-77
2022/10/15 03:16:20;;;;;;;18.77;16.90;;;15.90;99.90;;;;;;5025627;28;20484;-81
2022/10/15 03:18:47;;;;;;;16.50;14.90;;;15.90;99.90;;;;;;5031239;28;20534;-78
2022/10/15 03:21:14;;;;;;;20.27;18.23;;;15.90;99.90;;;;;;5026551;28;20492;-78
2022/10/15 03:23:45;;;;;;;17.97;16.27;;;15.90;99.90;;;;;;5030002;28;20472;-78
2022/10/15 03:26:12;;;;;;;20.47;17.00;;;15.90;99.90;;;;;;5025879;28;20484;-80
2022/10/15 03:28:39;;;;;;;21.43;18.50;;;15.90;99.90;;;;;;5013543;28;21062;-80
2022/10/15 03:31:07;;;;;;;17.50;15.63;;;15.90;99.90;;;;;;5026308;28;20498;-80
2022/10/15 03:33:34;;;;;;;20.20;15.50;;;15.90;99.90;;;;;;5028148;28;20865;-79
2022/10/15 03:36:01;;;;;;;16.50;14.80;;;15.90;99.90;;;;;;5025317;28;20476;-79
2022/10/15 03:38:31;;;;;;;16.80;15.10;;;15.90;99.90;;;;;;5033660;28;20473;-79
2022/10/15 03:40:59;;;;;;;14.90;12.80;;;15.90;99.90;;;;;;5026183;28;20468;-79
2022/10/15 03:43:27;;;;;;;16.27;14.67;;;15.90;99.90;;;;;;5021626;28;20496;-77
2022/10/15 03:45:54;;;;;;;17.63;14.73;;;15.90;99.90;;;;;;5032427;28;20477;-79
2022/10/15 03:48:21;;;;;;;18.50;15.70;;;15.90;99.90;;;;;;5029926;28;20474;-80
2022/10/15 03:50:48;;;;;;;17.23;15.43;;;15.90;99.90;;;;;;5030645;28;20474;-76
2022/10/15 03:53:15;;;;;;;17.53;15.73;;;15.90;99.90;;;;;;5023880;28;20470;-77
2022/10/15 03:55:42;;;;;;;18.00;16.10;;;15.90;99.90;;;;;;5026525;28;20472;-79
2022/10/15 03:58:10;;;;;;;18.50;14.67;;;15.90;99.90;;;;;;5022044;28;20539;-80
2022/10/15 04:00:41;;;;;;;15.23;13.80;;;15.90;99.90;;;;;;5020430;28;20926;-80
2022/10/15 04:03:08;;;;;;;18.17;16.27;;;15.80;99.90;;;;;;5029848;28;20560;-80
2022/10/15 04:05:35;;;;;;;18.13;16.30;;;15.80;99.90;;;;;;5027780;28;20534;-79
2022/10/15 04:08:02;;;;;;;14.73;13.13;;;15.80;99.90;;;;;;5026383;28;20482;-80
2022/10/15 04:10:30;;;;;;;15.20;13.67;;;15.80;99.90;;;;;;5022061;28;20485;-78
2022/10/15 04:12:58;;;;;;;15.77;14.20;;;15.80;99.90;;;;;;5035953;28;20541;-78
2022/10/15 04:15:27;;;;;;;16.93;15.27;;;15.80;99.90;;;;;;5035386;28;20503;-78
2022/10/15 04:17:55;;;;;;;20.40;15.13;;;15.80;99.90;;;;;;5029013;28;20472;-80
2022/10/15 04:20:22;;;;;;;15.30;13.80;;;15.80;99.90;;;;;;5033598;28;20472;-80
2022/10/15 04:22:49;;;;;;;19.63;17.63;;;15.80;99.90;;;;;;5023332;28;20502;-78
2022/10/15 04:25:16;;;;;;;18.30;16.37;;;15.80;99.90;;;;;;5034049;28;20514;-78
2022/10/15 04:27:43;;;;;;;15.83;14.23;;;15.80;99.90;;;;;;5023048;28;20467;-80
2022/10/15 04:30:12;;;;;;;14.97;13.47;;;15.80;99.90;;;;;;5021901;28;20508;-78
2022/10/15 04:32:40;;;;;;;15.47;13.87;;;15.80;99.90;;;;;;5026589;28;20531;-80
2022/10/15 04:35:08;;;;;;;15.77;14.10;;;15.80;99.90;;;;;;5028843;28;20552;-80
2022/10/15 04:37:35;;;;;;;22.00;17.90;;;15.80;99.90;;;;;;5023722;28;20472;-80
2022/10/15 04:40:03;;;;;;;17.43;15.53;;;15.70;99.90;;;;;;5033185;28;20962;-78
2022/10/15 04:42:57;;;;;;;18.20;16.40;;;15.70;99.90;;;;;;5023632;28;20468;-80
2022/10/15 04:45:24;;;;;;;16.33;14.63;;;15.70;99.90;;;;;;5022135;28;20561;-77
2022/10/15 04:47:53;;;;;;;17.10;15.03;;;15.70;99.90;;;;;;5031568;28;20464;-79
2022/10/15 04:50:20;;;;;;;15.80;14.20;;;15.70;99.90;;;;;;5027314;28;20488;-78
2022/10/15 04:52:47;;;;;;;19.33;16.37;;;15.70;99.90;;;;;;5027404;28;20803;-78
2022/10/15 04:55:14;;;;;;;15.83;14.20;;;15.70;99.90;;;;;;5027070;28;20484;-79
2022/10/15 04:57:41;;;;;;;18.00;15.37;;;15.70;99.90;;;;;;5027842;28;20962;-78
2022/10/15 05:00:23;;;;;;;14.03;12.63;;;15.70;99.90;;;;;;5030615;28;20498;-78
2022/10/15 05:02:54;;;;;;;15.20;13.60;;;15.70;99.90;;;;;;5019975;28;20476;-77
2022/10/15 05:05:21;;;;;;;16.53;14.83;;;15.70;99.90;;;;;;5024818;28;20473;-78
2022/10/15 05:07:49;;;;;;;15.83;14.13;;;15.70;99.90;;;;;;5026265;28;20899;-79
2022/10/15 05:10:16;;;;;;;18.83;14.50;;;15.80;99.90;;;;;;5024582;28;20559;-77
2022/10/15 05:12:43;;;;;;;16.57;14.87;;;15.80;99.90;;;;;;5029470;28;20484;-80
2022/10/15 05:15:10;;;;;;;16.13;14.63;;;15.80;99.90;;;;;;5034526;28;20876;-79
2022/10/15 05:17:37;;;;;;;16.60;14.87;;;15.80;99.90;;;;;;5020753;28;20472;-79
2022/10/15 05:20:07;;;;;;;16.67;14.63;;;15.80;99.90;;;;;;5034498;28;20983;-77
2022/10/15 05:22:34;;;;;;;15.97;13.43;;;15.80;99.90;;;;;;5018596;28;20990;-80
2022/10/15 05:25:08;;;;;;;13.60;12.30;;;15.80;99.90;;;;;;4995074;28;20809;-78
2022/10/15 05:27:35;;;;;;;15.97;14.20;;;15.90;99.90;;;;;;4994862;28;20467;-80
2022/10/15 05:30:03;;;;;;;14.60;13.10;;;15.80;99.90;;;;;;4995523;28;20485;-80
2022/10/15 05:32:30;;;;;;;14.43;13.10;;;15.80;99.90;;;;;;4995055;28;20482;-78
2022/10/15 05:34:57;;;;;;;14.27;12.50;;;15.80;99.90;;;;;;4994612;28;20471;-78
2022/10/15 05:37:25;;;;;;;17.27;15.50;;;15.80;99.90;;;;;;4995388;28;20466;-78
2022/10/15 05:39:52;;;;;;;17.07;15.37;;;15.80;99.90;;;;;;4994908;28;20498;-78
2022/10/15 05:42:23;;;;;;;14.37;13.07;;;15.80;99.90;;;;;;4995078;28;20477;-80
2022/10/15 05:44:50;;;;;;;15.43;13.00;;;15.80;99.90;;;;;;4994399;28;20478;-81
2022/10/15 05:47:17;;;;;;;16.23;14.50;;;15.80;99.90;;;;;;4996262;28;20824;-78
2022/10/15 05:49:44;;;;;;;20.43;16.57;;;15.80;99.90;;;;;;4995417;28;20562;-78
2022/10/15 05:52:13;;;;;;;18.57;15.93;;;15.80;99.90;;;;;;4995221;28;20482;-78
2022/10/15 05:54:41;;;;;;;20.10;14.07;;;15.80;99.90;;;;;;4995184;28;20485;-78
2022/10/15 05:57:08;;;;;;;17.00;15.30;;;15.80;99.90;;;;;;5001700;28;20497;-77
2022/10/15 05:59:35;;;;;;;15.00;13.40;;;15.80;99.90;;;;;;5003639;28;20509;-78
2022/10/15 06:02:02;;;;;;;14.57;13.00;;;15.80;99.90;;;;;;5003376;28;20521;-80
2022/10/15 06:04:31;;;;;;;17.13;15.40;;;15.80;99.90;;;;;;4995986;28;20558;-79
2022/10/15 06:06:58;;;;;;;15.13;13.63;;;15.80;99.90;;;;;;4994305;28;20463;-80
2022/10/15 06:09:25;;;;;;;15.97;14.43;;;15.80;99.90;;;;;;4994837;28;20474;-80
2022/10/15 06:11:53;;;;;;;16.37;14.70;;;15.80;99.90;;;;;;4993945;28;20509;-79
2022/10/15 06:14:20;;;;;;;15.07;13.50;;;15.80;99.90;;;;;;4994294;28;20497;-78
2022/10/15 06:16:49;;;;;;;13.83;12.43;;;15.80;99.90;;;;;;4994214;28;20473;-76
2022/10/15 06:19:16;;;;;;;16.20;12.87;;;15.80;99.90;;;;;;4994242;28;20458;-77
2022/10/15 06:21:43;;;;;;;14.43;12.50;;;15.80;99.90;;;;;;4993538;28;20497;-78
2022/10/15 06:24:10;;;;;;;13.40;12.00;;;15.80;99.90;;;;;;5007402;28;20603;-78
2022/10/15 06:26:37;;;;;;;14.33;13.03;;;15.80;99.90;;;;;;5013666;28;20508;-78
2022/10/15 06:29:06;;;;;;;15.67;13.20;;;15.70;99.90;;;;;;5013534;28;20544;-79
2022/10/15 06:31:33;;;;;;;13.77;12.30;;;15.70;99.90;;;;;;5013548;28;20547;-77
2022/10/15 06:34:00;;;;;;;13.70;12.30;;;15.70;99.90;;;;;;5013369;28;20470;-78
2022/10/15 06:36:27;;;;;;;14.57;12.97;;;15.70;99.90;;;;;;5013892;28;21041;-79
2022/10/15 06:38:54;;;;;;;13.67;12.37;;;15.70;99.90;;;;;;5013534;28;20477;-81
2022/10/15 06:41:21;;;;;;;19.30;15.93;;;15.70;99.90;;;;;;5013099;28;20464;-77
2022/10/15 06:43:50;;;;;;;16.00;14.40;;;15.70;99.90;;;;;;5012903;28;20465;-79
2022/10/15 06:46:19;;;;;;;14.33;12.77;;;15.70;99.90;;;;;;5014134;28;20476;-81
2022/10/15 06:48:46;;;;;;;14.13;12.73;;;15.70;99.90;;;;;;5012713;28;20477;-80
2022/10/15 06:51:13;;;;;;;14.73;13.23;;;15.80;99.90;;;;;;5013417;28;20793;-80
2022/10/15 06:53:42;;;;;;;15.70;14.00;;;15.80;99.90;;;;;;5013860;28;20535;-79
2022/10/15 06:56:09;;;;;;;15.83;13.67;;;15.90;99.90;;;;;;5013299;28;20475;-78
2022/10/15 06:58:39;;;;;;;14.30;12.80;;;15.90;99.90;;;;;;5015886;28;20474;-79
2022/10/15 07:01:08;;;;;;;16.90;14.23;;;15.90;99.90;;;;;;5006630;28;20475;-79
2022/10/15 07:03:38;;;;;;;16.80;15.10;;;16.00;99.90;;;;;;5012731;28;20480;-80
2022/10/15 07:06:15;;;;;;;15.63;14.00;;;16.00;99.90;;;;;;5012513;28;20983;-78
2022/10/15 07:09:04;;;;;;;13.47;12.27;;;16.00;99.90;;;;;;5013932;28;20549;-78
2022/10/15 07:11:42;;;;;;;12.60;11.50;;;16.10;99.90;;;;;;4990137;28;20469;-77
2022/10/15 07:14:29;;;;;;;22.63;20.23;;;16.10;99.90;;;;;;5012718;28;20457;-78
2022/10/15 07:16:57;;;;;;;17.80;15.90;;;16.10;99.90;;;;;;5014051;28;20552;-80
2022/10/15 07:19:28;;;;;;;17.60;14.70;;;16.20;99.90;;;;;;5007264;28;20464;-78
2022/10/15 07:21:58;;;;;;;15.20;13.80;;;16.20;99.90;;;;;;5015268;28;20487;-78
2022/10/15 07:24:36;;;;;;;17.17;15.37;;;16.20;99.90;;;;;;5005696;28;20483;-78
2022/10/15 07:27:03;;;;;;;18.43;16.47;;;16.20;99.90;;;;;;5014221;28;20519;-78
2022/10/15 07:29:35;;;;;;;17.87;15.10;;;16.30;99.90;;;;;;5014999;28;20473;-79
2022/10/15 07:32:02;;;;;;;14.30;12.87;;;16.30;99.90;;;;;;5017146;28;20483;-79
2022/10/15 07:34:33;;;;;;;13.13;11.93;;;16.30;99.90;;;;;;5019065;28;20867;-77
2022/10/15 07:37:03;;;;;;;11.53;10.33;;;16.40;99.90;;;;;;5017866;28;20565;-76
2022/10/15 07:39:38;;;;;;;13.00;11.60;;;16.50;99.90;;;;;;5021873;28;20467;-81
2022/10/15 07:42:05;;;;;;;14.57;13.10;;;16.50;99.90;;;;;;5021312;28;20857;-79
2022/10/15 07:44:33;;;;;;;14.80;13.20;;;16.50;99.90;;;;;;5020994;28;20477;-80
2022/10/15 07:47:00;;;;;;;14.60;13.07;;;16.50;99.90;;;;;;5021378;28;20524;-80
2022/10/15 07:49:28;;;;;;;15.00;13.40;;;16.60;99.90;;;;;;5021630;28;20465;-80
2022/10/15 07:51:56;;;;;;;13.57;12.20;;;16.60;99.90;;;;;;5019345;28;20469;-80
2022/10/15 07:54:24;;;;;;;14.60;12.60;;;16.70;99.90;;;;;;5017572;28;20502;-78
2022/10/15 07:56:51;;;;;;;13.60;12.30;;;16.70;99.90;;;;;;5016951;28;20475;-77
2022/10/15 07:59:18;;;;;;;9.80;9.00;;;16.80;99.90;;;;;;5018172;28;20514;-79
2022/10/15 08:01:45;;;;;;;11.43;10.30;;;16.80;99.90;;;;;;5018476;28;20510;-81
2022/10/15 08:04:15;;;;;;;15.40;13.80;;;16.90;99.90;;;;;;5008721;28;20475;-81
2022/10/15 08:06:48;;;;;;;15.23;13.13;;;16.90;99.90;;;;;;5016522;28;20533;-78
2022/10/15 08:09:17;;;;;;;12.40;11.30;;;17.00;99.90;;;;;;5018178;28;20475;-80
2022/10/15 08:11:44;;;;;;;11.60;10.50;;;17.00;99.90;;;;;;5019493;28;20476;-80
2022/10/15 08:14:13;;;;;;;11.23;9.87;;;17.10;99.90;;;;;;5024753;28;20473;-78
2022/10/15 08:16:40;;;;;;;13.60;11.93;;;17.20;99.90;;;;;;5018982;28;20463;-78
2022/10/15 08:19:09;;;;;;;11.60;10.47;;;17.20;99.90;;;;;;5015858;28;20529;-80
2022/10/15 08:21:37;;;;;;;11.67;10.43;;;17.30;99.90;;;;;;5016637;28;20472;-78
2022/10/15 08:24:04;;;;;;;12.03;10.77;;;17.30;99.90;;;;;;5016597;28;20474;-80
2022/10/15 08:26:37;;;;;;;13.03;10.80;;;17.40;99.90;;;;;;5020364;28;20997;-80
2022/10/15 08:29:04;;;;;;;10.40;9.43;;;17.40;99.90;;;;;;5016521;28;20495;-80
2022/10/15 08:31:31;;;;;;;10.73;9.67;;;17.50;99.90;;;;;;5015732;28;20492;-80
2022/10/15 08:34:00;;;;;;;10.70;9.70;;;17.50;99.90;;;;;;5016690;28;20477;-80
2022/10/15 08:36:27;;;;;;;11.33;10.17;;;17.60;99.90;;;;;;5016376;28;20504;-79
2022/10/15 08:38:57;;;;;;;11.47;10.20;;;17.60;99.90;;;;;;5015884;28;20472;-78
2022/10/15 08:41:32;;;;;;;10.33;9.33;;;17.60;99.90;;;;;;5015070;28;20473;-78
2022/10/15 08:44:02;;;;;;;11.00;10.00;;;17.70;99.90;;;;;;5015941;28;20480;-78
2022/10/15 08:46:35;;;;;;;11.97;10.87;;;17.70;99.90;;;;;;5017289;28;20484;-79
2022/10/15 08:49:03;;;;;;;11.27;10.27;;;17.70;99.90;;;;;;5016723;28;20480;-79
2022/10/15 08:51:41;;;;;;;10.30;9.30;;;17.80;99.90;;;;;;5017792;28;20543;-79
2022/10/15 08:54:16;;;;;;;9.53;8.73;;;17.80;99.90;;;;;;5019158;28;20996;-79
2022/10/15 08:56:47;;;;;;;9.87;8.87;;;17.80;99.90;;;;;;5020158;28;20506;-77
2022/10/15 08:59:27;;;;;;;10.33;9.30;;;17.90;99.90;;;;;;5018414;28;20489;-78
2022/10/15 09:01:59;;;;;;;11.30;10.27;;;17.90;99.90;;;;;;5018728;28;20480;-79
2022/10/15 09:04:54;;;;;;;8.07;7.27;;;17.90;99.90;;;;;;5021327;28;20555;-78
2022/10/15 09:07:46;;;;;;;8.23;7.43;;;17.90;99.90;;;;;;5002042;28;20488;-78
2022/10/15 09:10:45;;;;;;;10.67;9.67;;;17.90;99.90;;;;;;4986115;28;20486;-80
2022/10/15 09:13:17;;;;;;;9.07;8.20;;;17.90;99.90;;;;;;5011415;28;20567;-79
2022/10/15 09:15:56;;;;;;;11.07;9.97;;;18.00;99.90;;;;;;5026603;28;20469;-79
2022/10/15 09:18:29;;;;;;;10.23;9.27;;;18.00;99.90;;;;;;5027686;28;20468;-78
2022/10/15 09:21:01;;;;;;;11.50;10.40;;;18.00;99.90;;;;;;5031206;28;20457;-78
2022/10/15 09:23:29;;;;;;;14.07;12.43;;;18.10;99.90;;;;;;5017582;28;20481;-78
2022/10/15 09:26:10;;;;;;;12.53;11.27;;;18.10;99.90;;;;;;5025204;28;20938;-78
2022/10/15 09:28:47;;;;;;;11.97;10.87;;;18.20;99.90;;;;;;5014836;28;20451;-79
2022/10/15 09:31:46;;;;;;;9.80;8.90;;;18.20;99.90;;;;;;5016417;28;20499;-76
2022/10/15 09:34:35;;;;;;;10.10;9.10;;;18.20;99.90;;;;;;5003387;28;20472;-79
2022/10/15 09:37:11;;;;;;;10.90;9.83;;;18.20;99.90;;;;;;5025489;28;20453;-79
2022/10/15 09:39:55;;;;;;;12.70;11.40;;;18.20;99.90;;;;;;5031391;28;20551;-78
2022/10/15 09:42:29;;;;;;;9.80;8.83;;;18.20;99.90;;;;;;5010469;28;20971;-78
2022/10/15 09:45:06;;;;;;;10.07;9.17;;;18.30;99.90;;;;;;5016767;28;20522;-79
2022/10/15 09:47:45;;;;;;;11.10;9.70;;;18.30;99.90;;;;;;5015425;28;20863;-81
2022/10/15 09:50:14;;;;;;;10.43;9.43;;;18.30;99.90;;;;;;5005505;28;20515;-80
2022/10/15 09:53:03;;;;;;;10.87;9.77;;;18.40;99.90;;;;;;5013344;28;20639;-79
2022/10/15 09:55:42;;;;;;;11.20;10.17;;;18.40;99.90;;;;;;5004286;28;20473;-80
2022/10/15 10:01:22;;;;;;;11.80;10.60;;;18.50;99.90;;;;;;5000725;28;20480;-78
2022/10/15 10:03:55;;;;;;;11.83;10.00;;;18.50;99.90;;;;;;5014979;28;20483;-80
2022/10/15 10:06:28;;;;;;;11.00;9.90;;;18.60;99.90;;;;;;5016406;28;20469;-79
2022/10/15 10:08:58;;;;;;;11.20;10.07;;;18.60;99.90;;;;;;5015497;28;20858;-80
2022/10/15 10:11:29;;;;;;;9.20;8.40;;;18.70;99.90;;;;;;5016952;28;20489;-79
2022/10/15 10:13:58;;;;;;;10.60;9.53;;;18.70;99.90;;;;;;5030651;28;20465;-81
2022/10/15 10:16:28;;;;;;;11.23;9.93;;;18.70;99.90;;;;;;5015394;28;20531;-80
2022/10/15 10:19:05;;;;;;;12.10;10.90;;;18.80;99.90;;;;;;5026242;28;20468;-77
2022/10/15 10:21:36;;;;;;;12.90;10.60;;;18.80;99.90;;;;;;5033481;28;20545;-76
2022/10/15 10:24:33;;;;;;;11.23;9.27;;;18.80;99.90;;;;;;5034160;28;20965;-77
2022/10/15 10:30:14;;;;;;;9.00;8.10;;;18.90;99.90;;;;;;5033986;28;20452;-80
2022/10/15 10:32:42;;;;;;;8.83;8.10;;;18.90;99.90;;;;;;5034602;28;20795;-78
2022/10/15 10:35:21;;;;;;;9.17;8.30;;;18.90;99.90;;;;;;5033924;28;20484;-79
2022/10/15 10:37:51;;;;;;;9.90;9.10;;;19.00;99.90;;;;;;5033148;28;20522;-78
2022/10/15 10:40:26;;;;;;;10.63;9.50;;;19.00;99.90;;;;;;5032930;28;20547;-78
2022/10/15 10:43:12;;;;;;;13.13;11.73;;;19.00;99.90;;;;;;5033323;28;20468;-79
2022/10/15 10:45:39;;;;;;;10.10;9.10;;;19.10;99.90;;;;;;5014106;28;20555;-78
2022/10/15 10:48:20;;;;;;;10.37;9.37;;;19.10;99.90;;;;;;5004230;28;20858;-80
2022/10/15 10:50:49;;;;;;;11.47;10.40;;;19.10;99.90;;;;;;5012605;28;20469;-79
2022/10/15 10:53:22;;;;;;;11.80;10.60;;;19.20;99.90;;;;;;5014949;28;20536;-77
2022/10/15 10:55:51;;;;;;;12.83;11.57;;;19.20;99.90;;;;;;5013284;28;20497;-80
2022/10/15 10:58:20;;;;;;;11.03;9.93;;;19.20;99.90;;;;;;5014190;28;20472;-79
2022/10/15 11:00:52;;;;;;;11.17;10.07;;;19.20;99.90;;;;;;5012683;28;20476;-79
2022/10/15 11:03:29;;;;;;;10.10;8.83;;;19.30;99.90;;;;;;5013049;28;20473;-79
2022/10/15 11:06:04;;;;;;;10.10;9.20;;;19.30;99.90;;;;;;5015056;28;20959;-79
2022/10/15 11:08:43;;;;;;;8.73;7.93;;;19.30;99.90;;;;;;5017283;28;20550;-77
2022/10/15 11:11:18;;;;;;;9.83;8.90;;;19.40;99.90;;;;;;5016911;28;20857;-78
2022/10/15 11:13:58;;;;;;;9.33;8.53;;;19.40;99.90;;;;;;5035799;28;20467;-77
2022/10/15 11:16:35;;;;;;;8.80;7.93;;;19.40;99.90;;;;;;5037378;28;20472;-77
2022/10/15 11:19:20;;;;;;;8.93;8.13;;;19.40;99.90;;;;;;5037205;28;20460;-80
2022/10/15 11:22:01;;;;;;;9.00;8.30;;;19.40;99.90;;;;;;5036269;28;20542;-80
2022/10/15 11:24:34;;;;;;;9.80;8.90;;;19.40;99.90;;;;;;5036547;28;20488;-79
2022/10/15 11:27:14;;;;;;;8.70;7.90;;;19.40;99.90;;;;;;5035993;28;20523;-80
2022/10/15 11:30:00;;;;;;;8.67;7.93;;;19.50;99.90;;;;;;5036225;28;20472;-79
2022/10/15 11:32:50;;;;;;;9.73;8.93;;;19.50;99.90;;;;;;5036202;28;20477;-78
2022/10/15 11:35:34;;;;;;;9.17;8.37;;;19.50;99.90;;;;;;5025404;28;20978;-78
2022/10/15 11:38:13;;;;;;;8.93;8.13;;;19.50;99.90;;;;;;5022769;28;20524;-78
2022/10/15 11:40:51;;;;;;;8.07;7.37;;;19.50;99.90;;;;;;5034518;28;20956;-79
2022/10/15 11:43:45;;;;;;;8.60;7.87;;;19.50;99.90;;;;;;5035932;28;20472;-80
2022/10/15 11:46:20;;;;;;;9.33;8.40;;;19.50;99.90;;;;;;5036399;28;20476;-80
2022/10/15 11:48:58;;;;;;;7.27;6.57;;;19.50;99.90;;;;;;5035719;28;20463;-78
2022/10/15 11:51:31;;;;;;;9.50;7.83;;;19.50;99.90;;;;;;5035807;28;20518;-78
2022/10/15 11:54:26;;;;;;;7.30;6.60;;;19.50;99.90;;;;;;5036434;28;20499;-78
2022/10/15 11:56:56;;;;;;;6.87;6.27;;;19.60;99.90;;;;;;5035853;28;20822;-78
2022/10/15 11:59:33;;;;;;;7.33;6.63;;;19.60;99.90;;;;;;5035812;28;20467;-81
2022/10/15 12:02:04;;;;;;;6.50;5.83;;;19.60;99.90;;;;;;5035943;28;20467;-79
2022/10/15 12:04:38;;;;;;;12.60;8.50;;;19.60;99.90;;;;;;5035529;28;20473;-79
2022/10/15 12:07:13;;;;;;;7.43;6.80;;;19.60;99.90;;;;;;5037204;28;20452;-78
2022/10/15 12:09:46;;;;;;;7.03;6.43;;;19.60;99.90;;;;;;5036905;28;20471;-80
2022/10/15 12:12:26;;;;;;;7.43;6.77;;;19.60;99.90;;;;;;5035637;28;20495;-80
2022/10/15 12:15:06;;;;;;;6.20;5.67;;;19.60;99.90;;;;;;5035716;28;20573;-80
2022/10/15 12:17:43;;;;;;;7.70;6.90;;;19.50;99.90;;;;;;5036269;28;20527;-78
2022/10/15 12:20:14;;;;;;;6.83;6.23;;;19.50;99.90;;;;;;5033848;28;20468;-78
2022/10/15 12:22:58;;;;;;;6.47;5.37;;;19.50;99.90;;;;;;5034812;28;20489;-80
2022/10/15 12:25:45;;;;;;;5.73;5.23;;;19.50;99.90;;;;;;5022051;28;20475;-78
2022/10/15 12:28:19;;;;;;;5.37;4.83;;;19.50;99.90;;;;;;5036151;28;20471;-80
2022/10/15 12:31:01;;;;;;;7.33;6.63;;;19.50;99.90;;;;;;5015578;28;20479;-77
2022/10/15 12:33:33;;;;;;;6.50;5.90;;;19.50;99.90;;;;;;5029589;28;20795;-78
2022/10/15 12:39:47;;;;;;;9.17;8.37;;;19.50;99.90;;;;;;4982579;28;20496;-80
2022/10/15 12:42:26;;;;;;;11.20;10.13;;;19.50;99.90;;;;;;5009843;28;20480;-80
2022/10/15 12:44:54;;;;;;;9.43;8.53;;;19.50;99.90;;;;;;5028518;28;20476;-80
2022/10/15 12:47:48;;;;;;;9.33;8.40;;;19.40;99.90;;;;;;5023821;28;20468;-80
2022/10/15 12:50:19;;;;;;;7.20;6.50;;;19.40;99.90;;;;;;5028559;28;20478;-80
2022/10/15 12:53:10;;;;;;;9.37;8.57;;;19.50;99.90;;;;;;5032111;28;20482;-80
2022/10/15 12:55:42;;;;;;;6.73;6.13;;;19.50;99.90;;;;;;5012856;28;20556;-77
2022/10/15 12:58:35;;;;;;;6.63;6.00;;;19.50;99.90;;;;;;5031240;28;20464;-80
2022/10/15 13:01:07;;;;;;;5.90;5.40;;;19.50;99.90;;;;;;5021198;28;20480;-80
2022/10/15 13:03:37;;;;;;;5.23;4.83;;;19.50;99.90;;;;;;5026306;28;20465;-80
2022/10/15 13:06:34;;;;;;;4.93;4.53;;;19.60;99.90;;;;;;5029366;28;20469;-77